sensor_id;sensor_type;location;lat;lon;timestamp;P1;durP1;ratioP1;P2;durP2;ratioP2
6566;SDS011;3317;43.994;22.878;2023-07-20T00:02:02;5.60;;;2.57;;
6566;SDS011;3317;43.994;22.878;2023-07-20T00:04:30;3.90;;;2.03;;
6566;SDS011;3317;43.994;22.878;2023-07-20T00:06:58;5.60;;;2.93;;
6566;SDS011;3317;43.994;22.878;2023-07-20T00:09:26;4.80;;;2.17;;
6566;SDS011;3317;43.994;22.878;2023-07-20T00:11:54;7.03;;;2.93;;
6566;SDS011;3317;43.994;22.878;2023-07-20T00:14:21;7.23;;;2.57;;
6566;SDS011;3317;43.994;22.878;2023-07-20T00:16:49;6.03;;;2.33;;
6566;SDS011;3317;43.994;22.878;2023-07-20T00:19:21;6.63;;;2.50;;
6566;SDS011;3317;43.994;22.878;2023-07-20T00:21:48;8.50;;;2.50;;
6566;SDS011;3317;43.994;22.878;2023-07-20T00:24:15;5.40;;;2.67;;
6566;SDS011;3317;43.994;22.878;2023-07-20T00:26:42;5.77;;;2.10;;
6566;SDS011;3317;43.994;22.878;2023-07-20T00:29:11;10.13;;;2.50;;
6566;SDS011;3317;43.994;22.878;2023-07-20T00:31:38;5.80;;;2.10;;
6566;SDS011;3317;43.994;22.878;2023-07-20T00:34:05;5.57;;;2.20;;
6566;SDS011;3317;43.994;22.878;2023-07-20T00:36:33;3.30;;;1.93;;
6566;SDS011;3317;43.994;22.878;2023-07-20T00:39:00;7.67;;;2.30;;
6566;SDS011;3317;43.994;22.878;2023-07-20T00:41:27;5.23;;;1.87;;
6566;SDS011;3317;43.994;22.878;2023-07-20T00:43:54;3.50;;;2.03;;
6566;SDS011;3317;43.994;22.878;2023-07-20T00:46:23;7.73;;;2.63;;
6566;SDS011;3317;43.994;22.878;2023-07-20T00:48:51;4.97;;;2.00;;
6566;SDS011;3317;43.994;22.878;2023-07-20T00:51:20;6.07;;;2.30;;
6566;SDS011;3317;43.994;22.878;2023-07-20T00:53:48;6.70;;;3.13;;
6566;SDS011;3317;43.994;22.878;2023-07-20T00:56:15;4.83;;;2.13;;
6566;SDS011;3317;43.994;22.878;2023-07-20T00:58:42;7.40;;;2.57;;
6566;SDS011;3317;43.994;22.878;2023-07-20T01:01:09;10.63;;;2.50;;
6566;SDS011;3317;43.994;22.878;2023-07-20T01:03:37;6.13;;;2.30;;
6566;SDS011;3317;43.994;22.878;2023-07-20T01:06:07;9.83;;;2.47;;
6566;SDS011;3317;43.994;22.878;2023-07-20T01:08:43;11.47;;;2.10;;
6566;SDS011;3317;43.994;22.878;2023-07-20T01:11:20;4.73;;;2.53;;
6566;SDS011;3317;43.994;22.878;2023-07-20T01:13:55;4.33;;;2.00;;
6566;SDS011;3317;43.994;22.878;2023-07-20T01:16:22;5.43;;;2.67;;
6566;SDS011;3317;43.994;22.878;2023-07-20T01:18:51;7.73;;;2.30;;
6566;SDS011;3317;43.994;22.878;2023-07-20T01:21:18;7.97;;;2.30;;
6566;SDS011;3317;43.994;22.878;2023-07-20T01:23:56;12.43;;;2.33;;
6566;SDS011;3317;43.994;22.878;2023-07-20T01:26:50;5.00;;;2.60;;
6566;SDS011;3317;43.994;22.878;2023-07-20T01:29:32;8.27;;;2.50;;
6566;SDS011;3317;43.994;22.878;2023-07-20T01:32:23;3.40;;;1.80;;
6566;SDS011;3317;43.994;22.878;2023-07-20T01:34:52;5.63;;;2.30;;
6566;SDS011;3317;43.994;22.878;2023-07-20T01:37:20;5.33;;;2.20;;
6566;SDS011;3317;43.994;22.878;2023-07-20T01:39:51;6.77;;;2.57;;
6566;SDS011;3317;43.994;22.878;2023-07-20T01:42:21;7.00;;;2.67;;
6566;SDS011;3317;43.994;22.878;2023-07-20T01:44:50;9.73;;;4.40;;
6566;SDS011;3317;43.994;22.878;2023-07-20T01:47:17;6.47;;;3.87;;
6566;SDS011;3317;43.994;22.878;2023-07-20T01:49:46;6.00;;;3.00;;
6566;SDS011;3317;43.994;22.878;2023-07-20T01:52:13;4.87;;;2.83;;
6566;SDS011;3317;43.994;22.878;2023-07-20T01:54:40;5.40;;;2.73;;
6566;SDS011;3317;43.994;22.878;2023-07-20T01:57:08;11.80;;;3.37;;
6566;SDS011;3317;43.994;22.878;2023-07-20T01:59:35;4.00;;;2.13;;
6566;SDS011;3317;43.994;22.878;2023-07-20T02:02:01;7.53;;;2.90;;
6566;SDS011;3317;43.994;22.878;2023-07-20T02:04:29;7.93;;;3.10;;
6566;SDS011;3317;43.994;22.878;2023-07-20T02:06:57;10.93;;;2.50;;
6566;SDS011;3317;43.994;22.878;2023-07-20T02:09:24;4.20;;;2.90;;
6566;SDS011;3317;43.994;22.878;2023-07-20T02:11:51;7.80;;;2.30;;
6566;SDS011;3317;43.994;22.878;2023-07-20T02:14:18;4.50;;;2.30;;
6566;SDS011;3317;43.994;22.878;2023-07-20T02:16:45;14.20;;;2.40;;
6566;SDS011;3317;43.994;22.878;2023-07-20T02:19:14;3.40;;;2.33;;
6566;SDS011;3317;43.994;22.878;2023-07-20T02:21:40;3.57;;;2.20;;
6566;SDS011;3317;43.994;22.878;2023-07-20T02:24:09;12.53;;;2.93;;
6566;SDS011;3317;43.994;22.878;2023-07-20T02:26:36;10.63;;;2.77;;
6566;SDS011;3317;43.994;22.878;2023-07-20T02:29:03;5.27;;;2.47;;
6566;SDS011;3317;43.994;22.878;2023-07-20T02:31:30;7.50;;;2.67;;
6566;SDS011;3317;43.994;22.878;2023-07-20T02:33:57;7.60;;;2.90;;
6566;SDS011;3317;43.994;22.878;2023-07-20T02:36:23;8.90;;;2.67;;
6566;SDS011;3317;43.994;22.878;2023-07-20T02:38:51;6.07;;;2.30;;
6566;SDS011;3317;43.994;22.878;2023-07-20T02:41:19;6.73;;;2.40;;
6566;SDS011;3317;43.994;22.878;2023-07-20T02:43:46;5.63;;;2.47;;
6566;SDS011;3317;43.994;22.878;2023-07-20T02:46:13;11.70;;;2.83;;
6566;SDS011;3317;43.994;22.878;2023-07-20T02:48:40;9.03;;;2.33;;
6566;SDS011;3317;43.994;22.878;2023-07-20T02:51:07;9.10;;;2.30;;
6566;SDS011;3317;43.994;22.878;2023-07-20T02:53:34;4.30;;;2.27;;
6566;SDS011;3317;43.994;22.878;2023-07-20T02:56:01;4.63;;;2.10;;
6566;SDS011;3317;43.994;22.878;2023-07-20T02:58:30;10.63;;;3.00;;
6566;SDS011;3317;43.994;22.878;2023-07-20T03:00:57;5.53;;;2.57;;
6566;SDS011;3317;43.994;22.878;2023-07-20T03:03:24;6.67;;;2.03;;
6566;SDS011;3317;43.994;22.878;2023-07-20T03:05:52;7.23;;;2.23;;
6566;SDS011;3317;43.994;22.878;2023-07-20T03:08:21;9.53;;;2.50;;
6566;SDS011;3317;43.994;22.878;2023-07-20T03:10:48;8.33;;;2.80;;
6566;SDS011;3317;43.994;22.878;2023-07-20T03:13:15;5.93;;;3.00;;
6566;SDS011;3317;43.994;22.878;2023-07-20T03:15:43;5.97;;;2.40;;
6566;SDS011;3317;43.994;22.878;2023-07-20T03:18:10;8.40;;;2.70;;
6566;SDS011;3317;43.994;22.878;2023-07-20T03:20:37;10.03;;;3.30;;
6566;SDS011;3317;43.994;22.878;2023-07-20T03:23:04;13.07;;;2.93;;
6566;SDS011;3317;43.994;22.878;2023-07-20T03:25:31;7.80;;;3.37;;
6566;SDS011;3317;43.994;22.878;2023-07-20T03:27:58;7.10;;;3.43;;
6566;SDS011;3317;43.994;22.878;2023-07-20T03:30:25;7.60;;;3.53;;
6566;SDS011;3317;43.994;22.878;2023-07-20T03:32:53;7.50;;;3.67;;
6566;SDS011;3317;43.994;22.878;2023-07-20T03:35:21;13.10;;;3.47;;
6566;SDS011;3317;43.994;22.878;2023-07-20T03:37:48;7.80;;;3.67;;
6566;SDS011;3317;43.994;22.878;2023-07-20T03:40:15;11.67;;;3.80;;
6566;SDS011;3317;43.994;22.878;2023-07-20T03:42:42;6.00;;;3.10;;
6566;SDS011;3317;43.994;22.878;2023-07-20T03:45:12;11.00;;;2.63;;
6566;SDS011;3317;43.994;22.878;2023-07-20T03:47:39;8.47;;;2.80;;
6566;SDS011;3317;43.994;22.878;2023-07-20T03:50:07;9.60;;;2.43;;
6566;SDS011;3317;43.994;22.878;2023-07-20T03:52:35;10.93;;;3.37;;
6566;SDS011;3317;43.994;22.878;2023-07-20T03:55:02;10.10;;;3.07;;
6566;SDS011;3317;43.994;22.878;2023-07-20T03:57:30;9.50;;;3.20;;
6566;SDS011;3317;43.994;22.878;2023-07-20T03:59:58;10.47;;;2.80;;
6566;SDS011;3317;43.994;22.878;2023-07-20T04:02:25;9.73;;;3.00;;
6566;SDS011;3317;43.994;22.878;2023-07-20T04:04:52;10.43;;;3.37;;
6566;SDS011;3317;43.994;22.878;2023-07-20T04:07:21;14.07;;;3.20;;
6566;SDS011;3317;43.994;22.878;2023-07-20T04:09:48;10.23;;;3.40;;
6566;SDS011;3317;43.994;22.878;2023-07-20T04:12:15;9.80;;;3.70;;
6566;SDS011;3317;43.994;22.878;2023-07-20T04:14:42;6.37;;;2.73;;
6566;SDS011;3317;43.994;22.878;2023-07-20T04:17:09;7.27;;;2.93;;
6566;SDS011;3317;43.994;22.878;2023-07-20T04:19:38;8.90;;;3.47;;
6566;SDS011;3317;43.994;22.878;2023-07-20T04:22:05;9.67;;;3.10;;
6566;SDS011;3317;43.994;22.878;2023-07-20T04:24:33;5.37;;;2.50;;
6566;SDS011;3317;43.994;22.878;2023-07-20T04:27:00;5.07;;;2.80;;
6566;SDS011;3317;43.994;22.878;2023-07-20T04:29:27;7.67;;;2.87;;
6566;SDS011;3317;43.994;22.878;2023-07-20T04:31:54;6.27;;;3.43;;
6566;SDS011;3317;43.994;22.878;2023-07-20T04:34:21;9.53;;;2.70;;
6566;SDS011;3317;43.994;22.878;2023-07-20T04:36:48;12.30;;;3.97;;
6566;SDS011;3317;43.994;22.878;2023-07-20T04:39:15;12.83;;;3.00;;
6566;SDS011;3317;43.994;22.878;2023-07-20T04:41:43;9.33;;;2.90;;
6566;SDS011;3317;43.994;22.878;2023-07-20T04:44:10;19.03;;;3.53;;
6566;SDS011;3317;43.994;22.878;2023-07-20T04:46:37;14.87;;;3.63;;
6566;SDS011;3317;43.994;22.878;2023-07-20T04:49:05;7.40;;;3.30;;
6566;SDS011;3317;43.994;22.878;2023-07-20T04:51:32;11.27;;;3.27;;
6566;SDS011;3317;43.994;22.878;2023-07-20T04:53:59;6.40;;;3.10;;
6566;SDS011;3317;43.994;22.878;2023-07-20T04:56:26;7.07;;;2.73;;
6566;SDS011;3317;43.994;22.878;2023-07-20T04:58:54;8.50;;;2.67;;
6566;SDS011;3317;43.994;22.878;2023-07-20T05:01:21;6.77;;;2.83;;
6566;SDS011;3317;43.994;22.878;2023-07-20T05:03:48;11.33;;;3.20;;
6566;SDS011;3317;43.994;22.878;2023-07-20T05:06:15;9.03;;;3.70;;
6566;SDS011;3317;43.994;22.878;2023-07-20T05:08:42;6.63;;;3.00;;
6566;SDS011;3317;43.994;22.878;2023-07-20T05:11:09;6.63;;;3.20;;
6566;SDS011;3317;43.994;22.878;2023-07-20T05:13:37;9.87;;;3.27;;
6566;SDS011;3317;43.994;22.878;2023-07-20T05:16:05;6.00;;;3.20;;
6566;SDS011;3317;43.994;22.878;2023-07-20T05:18:32;11.20;;;3.10;;
6566;SDS011;3317;43.994;22.878;2023-07-20T05:20:59;7.80;;;3.50;;
6566;SDS011;3317;43.994;22.878;2023-07-20T05:23:26;6.37;;;3.33;;
6566;SDS011;3317;43.994;22.878;2023-07-20T05:25:54;9.00;;;3.40;;
6566;SDS011;3317;43.994;22.878;2023-07-20T05:28:21;7.63;;;2.73;;
6566;SDS011;3317;43.994;22.878;2023-07-20T05:30:48;6.13;;;2.93;;
6566;SDS011;3317;43.994;22.878;2023-07-20T05:33:18;4.00;;;2.63;;
6566;SDS011;3317;43.994;22.878;2023-07-20T05:35:45;7.43;;;3.60;;
6566;SDS011;3317;43.994;22.878;2023-07-20T05:38:12;7.20;;;3.10;;
6566;SDS011;3317;43.994;22.878;2023-07-20T05:40:39;9.60;;;3.07;;
6566;SDS011;3317;43.994;22.878;2023-07-20T05:43:07;6.03;;;2.97;;
6566;SDS011;3317;43.994;22.878;2023-07-20T05:45:34;9.97;;;3.80;;
6566;SDS011;3317;43.994;22.878;2023-07-20T05:48:01;7.90;;;2.93;;
6566;SDS011;3317;43.994;22.878;2023-07-20T05:50:30;7.33;;;3.17;;
6566;SDS011;3317;43.994;22.878;2023-07-20T05:52:57;14.30;;;3.63;;
6566;SDS011;3317;43.994;22.878;2023-07-20T05:55:24;8.97;;;3.37;;
6566;SDS011;3317;43.994;22.878;2023-07-20T05:57:51;9.60;;;3.23;;
6566;SDS011;3317;43.994;22.878;2023-07-20T06:00:21;8.07;;;3.20;;
6566;SDS011;3317;43.994;22.878;2023-07-20T06:02:51;6.27;;;3.47;;
6566;SDS011;3317;43.994;22.878;2023-07-20T06:05:20;9.33;;;3.60;;
6566;SDS011;3317;43.994;22.878;2023-07-20T06:07:50;10.07;;;4.23;;
6566;SDS011;3317;43.994;22.878;2023-07-20T06:10:16;10.87;;;4.33;;
6566;SDS011;3317;43.994;22.878;2023-07-20T06:12:44;13.17;;;6.40;;
6566;SDS011;3317;43.994;22.878;2023-07-20T06:15:24;12.70;;;4.63;;
6566;SDS011;3317;43.994;22.878;2023-07-20T06:17:53;9.97;;;4.17;;
6566;SDS011;3317;43.994;22.878;2023-07-20T06:20:21;7.63;;;4.93;;
6566;SDS011;3317;43.994;22.878;2023-07-20T06:22:50;9.43;;;4.43;;
6566;SDS011;3317;43.994;22.878;2023-07-20T06:25:17;6.90;;;3.40;;
6566;SDS011;3317;43.994;22.878;2023-07-20T06:27:45;10.67;;;3.37;;
6566;SDS011;3317;43.994;22.878;2023-07-20T06:30:12;4.10;;;2.70;;
6566;SDS011;3317;43.994;22.878;2023-07-20T06:32:39;7.10;;;2.73;;
6566;SDS011;3317;43.994;22.878;2023-07-20T06:35:07;5.17;;;2.60;;
6566;SDS011;3317;43.994;22.878;2023-07-20T06:37:34;7.17;;;2.87;;
6566;SDS011;3317;43.994;22.878;2023-07-20T06:40:03;7.73;;;3.00;;
6566;SDS011;3317;43.994;22.878;2023-07-20T06:42:30;6.20;;;2.43;;
6566;SDS011;3317;43.994;22.878;2023-07-20T06:44:57;6.00;;;2.60;;
6566;SDS011;3317;43.994;22.878;2023-07-20T06:47:24;8.17;;;2.03;;
6566;SDS011;3317;43.994;22.878;2023-07-20T06:49:51;8.57;;;3.07;;
6566;SDS011;3317;43.994;22.878;2023-07-20T06:52:18;4.80;;;2.67;;
6566;SDS011;3317;43.994;22.878;2023-07-20T06:54:45;4.80;;;2.60;;
6566;SDS011;3317;43.994;22.878;2023-07-20T06:57:13;6.43;;;2.90;;
6566;SDS011;3317;43.994;22.878;2023-07-20T06:59:40;6.60;;;3.00;;
6566;SDS011;3317;43.994;22.878;2023-07-20T07:02:07;6.03;;;2.10;;
6566;SDS011;3317;43.994;22.878;2023-07-20T07:04:34;9.47;;;2.67;;
6566;SDS011;3317;43.994;22.878;2023-07-20T07:07:01;4.43;;;2.30;;
6566;SDS011;3317;43.994;22.878;2023-07-20T07:09:29;7.23;;;2.70;;
6566;SDS011;3317;43.994;22.878;2023-07-20T07:11:56;5.30;;;2.40;;
6566;SDS011;3317;43.994;22.878;2023-07-20T07:16:59;9.00;;;2.43;;
6566;SDS011;3317;43.994;22.878;2023-07-20T07:19:27;6.50;;;2.27;;
6566;SDS011;3317;43.994;22.878;2023-07-20T07:21:54;6.77;;;2.53;;
6566;SDS011;3317;43.994;22.878;2023-07-20T07:24:21;13.50;;;2.93;;
6566;SDS011;3317;43.994;22.878;2023-07-20T07:26:47;6.30;;;2.57;;
6566;SDS011;3317;43.994;22.878;2023-07-20T07:29:14;5.23;;;2.50;;
6566;SDS011;3317;43.994;22.878;2023-07-20T07:31:41;6.47;;;2.77;;
6566;SDS011;3317;43.994;22.878;2023-07-20T07:34:09;6.30;;;3.00;;
6566;SDS011;3317;43.994;22.878;2023-07-20T07:36:36;7.87;;;3.10;;
6566;SDS011;3317;43.994;22.878;2023-07-20T07:39:03;7.33;;;3.10;;
6566;SDS011;3317;43.994;22.878;2023-07-20T07:41:30;7.27;;;3.30;;
6566;SDS011;3317;43.994;22.878;2023-07-20T07:43:57;6.20;;;3.70;;
6566;SDS011;3317;43.994;22.878;2023-07-20T07:46:24;11.60;;;3.77;;
6566;SDS011;3317;43.994;22.878;2023-07-20T07:48:51;8.67;;;3.40;;
6566;SDS011;3317;43.994;22.878;2023-07-20T07:51:19;10.90;;;3.60;;
6566;SDS011;3317;43.994;22.878;2023-07-20T07:53:46;8.10;;;3.60;;
6566;SDS011;3317;43.994;22.878;2023-07-20T07:56:14;5.70;;;3.20;;
6566;SDS011;3317;43.994;22.878;2023-07-20T07:58:41;9.10;;;3.83;;
6566;SDS011;3317;43.994;22.878;2023-07-20T08:01:08;11.47;;;3.57;;
6566;SDS011;3317;43.994;22.878;2023-07-20T08:03:35;6.40;;;3.40;;
6566;SDS011;3317;43.994;22.878;2023-07-20T08:06:02;11.57;;;4.03;;
6566;SDS011;3317;43.994;22.878;2023-07-20T08:08:31;10.67;;;3.90;;
6566;SDS011;3317;43.994;22.878;2023-07-20T08:10:59;12.57;;;3.80;;
6566;SDS011;3317;43.994;22.878;2023-07-20T08:13:26;13.30;;;4.50;;
6566;SDS011;3317;43.994;22.878;2023-07-20T08:15:52;6.90;;;3.17;;
6566;SDS011;3317;43.994;22.878;2023-07-20T08:18:19;8.20;;;4.00;;
6566;SDS011;3317;43.994;22.878;2023-07-20T08:20:46;8.20;;;3.70;;
6566;SDS011;3317;43.994;22.878;2023-07-20T08:23:14;9.63;;;3.33;;
6566;SDS011;3317;43.994;22.878;2023-07-20T08:25:42;13.03;;;3.87;;
6566;SDS011;3317;43.994;22.878;2023-07-20T08:28:10;8.20;;;3.73;;
6566;SDS011;3317;43.994;22.878;2023-07-20T08:30:40;5.73;;;3.03;;
6566;SDS011;3317;43.994;22.878;2023-07-20T08:33:08;10.07;;;4.17;;
6566;SDS011;3317;43.994;22.878;2023-07-20T08:35:36;9.30;;;3.57;;
6566;SDS011;3317;43.994;22.878;2023-07-20T08:38:03;9.50;;;4.60;;
6566;SDS011;3317;43.994;22.878;2023-07-20T08:40:30;11.57;;;3.50;;
6566;SDS011;3317;43.994;22.878;2023-07-20T08:42:59;11.33;;;3.50;;
6566;SDS011;3317;43.994;22.878;2023-07-20T08:45:27;6.33;;;3.37;;
6566;SDS011;3317;43.994;22.878;2023-07-20T08:47:55;9.83;;;3.40;;
6566;SDS011;3317;43.994;22.878;2023-07-20T08:50:25;14.43;;;4.20;;
6566;SDS011;3317;43.994;22.878;2023-07-20T08:52:54;10.20;;;4.07;;
6566;SDS011;3317;43.994;22.878;2023-07-20T08:55:23;11.50;;;3.70;;
6566;SDS011;3317;43.994;22.878;2023-07-20T08:57:52;6.53;;;4.33;;
6566;SDS011;3317;43.994;22.878;2023-07-20T09:00:22;8.50;;;4.00;;
6566;SDS011;3317;43.994;22.878;2023-07-20T09:02:50;9.17;;;4.10;;
6566;SDS011;3317;43.994;22.878;2023-07-20T09:08:04;9.40;;;4.43;;
6566;SDS011;3317;43.994;22.878;2023-07-20T09:10:31;8.37;;;4.10;;
6566;SDS011;3317;43.994;22.878;2023-07-20T09:12:57;10.60;;;4.63;;
6566;SDS011;3317;43.994;22.878;2023-07-20T09:15:26;7.60;;;4.00;;
6566;SDS011;3317;43.994;22.878;2023-07-20T09:17:54;6.80;;;3.80;;
6566;SDS011;3317;43.994;22.878;2023-07-20T09:20:21;14.30;;;4.10;;
6566;SDS011;3317;43.994;22.878;2023-07-20T09:22:50;7.53;;;3.77;;
6566;SDS011;3317;43.994;22.878;2023-07-20T09:25:18;7.43;;;3.40;;
6566;SDS011;3317;43.994;22.878;2023-07-20T09:27:46;9.13;;;3.63;;
6566;SDS011;3317;43.994;22.878;2023-07-20T09:30:14;7.80;;;3.40;;
6566;SDS011;3317;43.994;22.878;2023-07-20T09:32:44;9.43;;;3.77;;
6566;SDS011;3317;43.994;22.878;2023-07-20T09:35:12;11.23;;;3.17;;
6566;SDS011;3317;43.994;22.878;2023-07-20T09:37:42;6.13;;;3.73;;
6566;SDS011;3317;43.994;22.878;2023-07-20T09:40:14;5.70;;;3.53;;
6566;SDS011;3317;43.994;22.878;2023-07-20T09:42:43;7.87;;;3.20;;
6566;SDS011;3317;43.994;22.878;2023-07-20T09:45:10;5.67;;;3.87;;
6566;SDS011;3317;43.994;22.878;2023-07-20T09:47:37;7.30;;;3.80;;
6566;SDS011;3317;43.994;22.878;2023-07-20T09:50:06;5.70;;;3.90;;
6566;SDS011;3317;43.994;22.878;2023-07-20T09:52:37;4.70;;;3.47;;
6566;SDS011;3317;43.994;22.878;2023-07-20T09:55:06;7.00;;;3.67;;
6566;SDS011;3317;43.994;22.878;2023-07-20T09:57:34;11.00;;;4.53;;
6566;SDS011;3317;43.994;22.878;2023-07-20T10:00:02;6.13;;;4.23;;
6566;SDS011;3317;43.994;22.878;2023-07-20T10:02:39;7.63;;;4.03;;
6566;SDS011;3317;43.994;22.878;2023-07-20T10:05:10;13.90;;;4.10;;
6566;SDS011;3317;43.994;22.878;2023-07-20T10:07:40;7.73;;;4.00;;
6566;SDS011;3317;43.994;22.878;2023-07-20T10:10:11;6.87;;;4.20;;
6566;SDS011;3317;43.994;22.878;2023-07-20T10:12:42;12.07;;;4.30;;
6566;SDS011;3317;43.994;22.878;2023-07-20T10:15:15;7.00;;;4.43;;
6566;SDS011;3317;43.994;22.878;2023-07-20T10:17:53;9.70;;;5.27;;
6566;SDS011;3317;43.994;22.878;2023-07-20T10:20:27;7.70;;;4.40;;
6566;SDS011;3317;43.994;22.878;2023-07-20T10:22:54;11.13;;;4.50;;
6566;SDS011;3317;43.994;22.878;2023-07-20T10:25:23;6.40;;;4.50;;
6566;SDS011;3317;43.994;22.878;2023-07-20T10:27:50;9.73;;;4.80;;
6566;SDS011;3317;43.994;22.878;2023-07-20T10:30:17;8.20;;;4.43;;
6566;SDS011;3317;43.994;22.878;2023-07-20T10:32:45;14.37;;;4.73;;
6566;SDS011;3317;43.994;22.878;2023-07-20T10:35:13;10.63;;;4.40;;
6566;SDS011;3317;43.994;22.878;2023-07-20T10:37:49;5.37;;;3.47;;
6566;SDS011;3317;43.994;22.878;2023-07-20T10:40:25;5.73;;;3.90;;
6566;SDS011;3317;43.994;22.878;2023-07-20T10:42:56;8.13;;;4.23;;
6566;SDS011;3317;43.994;22.878;2023-07-20T10:45:37;9.40;;;4.40;;
6566;SDS011;3317;43.994;22.878;2023-07-20T10:48:12;4.57;;;2.97;;
6566;SDS011;3317;43.994;22.878;2023-07-20T10:50:39;6.53;;;3.50;;
6566;SDS011;3317;43.994;22.878;2023-07-20T10:53:12;7.47;;;3.87;;
6566;SDS011;3317;43.994;22.878;2023-07-20T10:55:40;5.40;;;3.60;;
6566;SDS011;3317;43.994;22.878;2023-07-20T10:58:09;9.63;;;3.40;;
6566;SDS011;3317;43.994;22.878;2023-07-20T11:00:38;5.40;;;3.27;;
6566;SDS011;3317;43.994;22.878;2023-07-20T11:03:28;6.43;;;4.20;;
6566;SDS011;3317;43.994;22.878;2023-07-20T11:05:56;10.70;;;3.70;;
6566;SDS011;3317;43.994;22.878;2023-07-20T11:11:23;12.37;;;3.83;;
6566;SDS011;3317;43.994;22.878;2023-07-20T11:13:54;9.43;;;3.93;;
6566;SDS011;3317;43.994;22.878;2023-07-20T11:16:32;6.97;;;3.77;;
6566;SDS011;3317;43.994;22.878;2023-07-20T11:19:13;4.43;;;3.60;;
6566;SDS011;3317;43.994;22.878;2023-07-20T11:21:44;6.23;;;4.03;;
6566;SDS011;3317;43.994;22.878;2023-07-20T11:24:14;6.73;;;4.37;;
6566;SDS011;3317;43.994;22.878;2023-07-20T11:26:41;8.10;;;4.40;;
6566;SDS011;3317;43.994;22.878;2023-07-20T11:29:09;8.70;;;4.23;;
6566;SDS011;3317;43.994;22.878;2023-07-20T11:31:37;8.97;;;4.50;;
6566;SDS011;3317;43.994;22.878;2023-07-20T11:34:04;12.00;;;5.50;;
6566;SDS011;3317;43.994;22.878;2023-07-20T11:36:31;5.43;;;4.17;;
6566;SDS011;3317;43.994;22.878;2023-07-20T11:38:59;9.37;;;4.83;;
6566;SDS011;3317;43.994;22.878;2023-07-20T11:41:29;8.40;;;4.70;;
6566;SDS011;3317;43.994;22.878;2023-07-20T11:43:56;4.83;;;4.30;;
6566;SDS011;3317;43.994;22.878;2023-07-20T11:46:23;7.40;;;5.03;;
6566;SDS011;3317;43.994;22.878;2023-07-20T11:48:55;5.37;;;3.93;;
6566;SDS011;3317;43.994;22.878;2023-07-20T11:51:23;7.13;;;4.33;;
6566;SDS011;3317;43.994;22.878;2023-07-20T11:53:51;8.03;;;4.40;;
6566;SDS011;3317;43.994;22.878;2023-07-20T11:56:18;8.50;;;4.40;;
6566;SDS011;3317;43.994;22.878;2023-07-20T11:58:46;5.60;;;4.13;;
6566;SDS011;3317;43.994;22.878;2023-07-20T12:01:13;10.47;;;4.50;;
6566;SDS011;3317;43.994;22.878;2023-07-20T12:03:41;6.17;;;4.63;;
6566;SDS011;3317;43.994;22.878;2023-07-20T12:06:08;6.63;;;4.30;;
6566;SDS011;3317;43.994;22.878;2023-07-20T12:08:38;6.97;;;3.97;;
6566;SDS011;3317;43.994;22.878;2023-07-20T12:11:06;7.90;;;4.80;;
6566;SDS011;3317;43.994;22.878;2023-07-20T12:13:37;9.93;;;4.17;;
6566;SDS011;3317;43.994;22.878;2023-07-20T12:16:12;4.73;;;3.80;;
6566;SDS011;3317;43.994;22.878;2023-07-20T12:18:41;5.83;;;3.70;;
6566;SDS011;3317;43.994;22.878;2023-07-20T12:21:09;7.53;;;3.73;;
6566;SDS011;3317;43.994;22.878;2023-07-20T12:23:37;6.83;;;3.83;;
6566;SDS011;3317;43.994;22.878;2023-07-20T12:26:06;6.67;;;3.30;;
6566;SDS011;3317;43.994;22.878;2023-07-20T12:28:35;4.50;;;3.70;;
6566;SDS011;3317;43.994;22.878;2023-07-20T12:31:06;6.43;;;3.77;;
6566;SDS011;3317;43.994;22.878;2023-07-20T12:33:34;8.03;;;3.53;;
6566;SDS011;3317;43.994;22.878;2023-07-20T12:36:01;6.20;;;3.23;;
6566;SDS011;3317;43.994;22.878;2023-07-20T12:38:29;5.30;;;3.83;;
6566;SDS011;3317;43.994;22.878;2023-07-20T12:40:57;7.43;;;4.23;;
6566;SDS011;3317;43.994;22.878;2023-07-20T12:43:25;8.30;;;3.50;;
6566;SDS011;3317;43.994;22.878;2023-07-20T12:45:52;6.17;;;3.67;;
6566;SDS011;3317;43.994;22.878;2023-07-20T12:48:20;5.50;;;3.40;;
6566;SDS011;3317;43.994;22.878;2023-07-20T12:50:48;11.03;;;3.77;;
6566;SDS011;3317;43.994;22.878;2023-07-20T12:53:15;6.13;;;3.50;;
6566;SDS011;3317;43.994;22.878;2023-07-20T12:55:42;12.17;;;3.40;;
6566;SDS011;3317;43.994;22.878;2023-07-20T12:58:11;7.53;;;3.77;;
6566;SDS011;3317;43.994;22.878;2023-07-20T13:00:38;6.27;;;3.43;;
6566;SDS011;3317;43.994;22.878;2023-07-20T13:03:05;10.10;;;3.17;;
6566;SDS011;3317;43.994;22.878;2023-07-20T13:05:33;10.50;;;3.20;;
6566;SDS011;3317;43.994;22.878;2023-07-20T13:08:02;4.30;;;3.30;;
6566;SDS011;3317;43.994;22.878;2023-07-20T13:10:30;8.10;;;3.60;;
6566;SDS011;3317;43.994;22.878;2023-07-20T13:12:57;5.87;;;2.97;;
6566;SDS011;3317;43.994;22.878;2023-07-20T13:15:29;6.77;;;3.40;;
6566;SDS011;3317;43.994;22.878;2023-07-20T13:17:57;8.60;;;3.77;;
6566;SDS011;3317;43.994;22.878;2023-07-20T13:20:24;5.30;;;3.30;;
6566;SDS011;3317;43.994;22.878;2023-07-20T13:22:52;6.03;;;3.63;;
6566;SDS011;3317;43.994;22.878;2023-07-20T13:25:20;10.37;;;3.30;;
6566;SDS011;3317;43.994;22.878;2023-07-20T13:27:47;10.03;;;3.53;;
6566;SDS011;3317;43.994;22.878;2023-07-20T13:30:14;6.53;;;3.60;;
6566;SDS011;3317;43.994;22.878;2023-07-20T13:32:43;6.20;;;3.40;;
6566;SDS011;3317;43.994;22.878;2023-07-20T13:35:10;6.90;;;3.70;;
6566;SDS011;3317;43.994;22.878;2023-07-20T13:37:37;7.90;;;3.30;;
6566;SDS011;3317;43.994;22.878;2023-07-20T13:40:04;6.63;;;3.90;;
6566;SDS011;3317;43.994;22.878;2023-07-20T13:42:35;9.23;;;4.90;;
6566;SDS011;3317;43.994;22.878;2023-07-20T13:45:03;7.57;;;4.23;;
6566;SDS011;3317;43.994;22.878;2023-07-20T13:47:30;8.10;;;4.00;;
6566;SDS011;3317;43.994;22.878;2023-07-20T13:49:57;9.50;;;4.20;;
6566;SDS011;3317;43.994;22.878;2023-07-20T13:52:24;9.10;;;3.97;;
6566;SDS011;3317;43.994;22.878;2023-07-20T13:54:51;6.70;;;3.47;;
6566;SDS011;3317;43.994;22.878;2023-07-20T13:57:18;5.17;;;3.80;;
6566;SDS011;3317;43.994;22.878;2023-07-20T13:59:46;5.23;;;4.23;;
6566;SDS011;3317;43.994;22.878;2023-07-20T14:02:13;6.87;;;4.07;;
6566;SDS011;3317;43.994;22.878;2023-07-20T14:04:41;8.70;;;4.93;;
6566;SDS011;3317;43.994;22.878;2023-07-20T14:07:08;6.50;;;4.40;;
6566;SDS011;3317;43.994;22.878;2023-07-20T14:09:36;9.53;;;4.17;;
6566;SDS011;3317;43.994;22.878;2023-07-20T14:12:03;10.60;;;4.67;;
6566;SDS011;3317;43.994;22.878;2023-07-20T14:14:30;11.07;;;4.70;;
6566;SDS011;3317;43.994;22.878;2023-07-20T14:16:58;7.00;;;4.10;;
6566;SDS011;3317;43.994;22.878;2023-07-20T14:19:25;6.83;;;4.13;;
6566;SDS011;3317;43.994;22.878;2023-07-20T14:21:52;7.80;;;3.80;;
6566;SDS011;3317;43.994;22.878;2023-07-20T14:24:20;7.73;;;4.07;;
6566;SDS011;3317;43.994;22.878;2023-07-20T14:26:47;8.30;;;4.30;;
6566;SDS011;3317;43.994;22.878;2023-07-20T14:29:14;7.00;;;4.20;;
6566;SDS011;3317;43.994;22.878;2023-07-20T14:31:41;8.50;;;4.60;;
6566;SDS011;3317;43.994;22.878;2023-07-20T14:34:10;17.07;;;5.07;;
6566;SDS011;3317;43.994;22.878;2023-07-20T14:36:37;8.70;;;5.10;;
6566;SDS011;3317;43.994;22.878;2023-07-20T14:39:04;5.83;;;4.00;;
6566;SDS011;3317;43.994;22.878;2023-07-20T14:41:31;11.27;;;4.67;;
6566;SDS011;3317;43.994;22.878;2023-07-20T14:43:58;9.80;;;4.37;;
6566;SDS011;3317;43.994;22.878;2023-07-20T14:46:25;5.20;;;4.00;;
6566;SDS011;3317;43.994;22.878;2023-07-20T14:48:51;9.00;;;4.70;;
6566;SDS011;3317;43.994;22.878;2023-07-20T14:51:20;10.60;;;5.20;;
6566;SDS011;3317;43.994;22.878;2023-07-20T14:53:47;7.67;;;4.90;;
6566;SDS011;3317;43.994;22.878;2023-07-20T14:56:14;5.67;;;4.40;;
6566;SDS011;3317;43.994;22.878;2023-07-20T14:58:40;9.77;;;5.10;;
6566;SDS011;3317;43.994;22.878;2023-07-20T15:01:07;12.93;;;5.43;;
6566;SDS011;3317;43.994;22.878;2023-07-20T15:03:34;7.00;;;5.47;;
6566;SDS011;3317;43.994;22.878;2023-07-20T15:06:01;7.93;;;4.80;;
6566;SDS011;3317;43.994;22.878;2023-07-20T15:08:30;6.97;;;4.93;;
6566;SDS011;3317;43.994;22.878;2023-07-20T15:10:57;10.37;;;5.27;;
6566;SDS011;3317;43.994;22.878;2023-07-20T15:13:24;11.03;;;5.77;;